Time;durP1;ratioP1;P1;durP2;ratioP2;P2;SDS_P1;SDS_P2;PMS_P1;PMS_P2;Temp;Humidity;BMP_temperature;BMP_pressure;BME280_temperature;BME280_humidity;BME280_pressure;Samples;Min_cycle;Max_cycle;Signal;HPM_P1;HPM_P2
2024/01/23 00:02:22;;;;;;;17.40;3.38;;;;;;;5.27;100.00;101773.72;5016393;28;20030;-72
2024/01/23 00:04:47;;;;;;;19.70;3.90;;;;;;;5.27;100.00;101778.38;5000960;28;20030;-72
2024/01/23 00:07:12;;;;;;;16.88;3.42;;;;;;;5.30;100.00;101786.19;5034069;28;20025;-72
2024/01/23 00:09:38;;;;;;;18.42;3.83;;;;;;;5.30;100.00;101787.03;5034036;28;20405;-72
2024/01/23 00:12:05;;;;;;;22.42;4.70;;;;;;;5.32;100.00;101789.53;5017775;28;20099;-72
2024/01/23 00:14:32;;;;;;;21.38;3.72;;;;;;;5.33;100.00;101799.50;5011672;28;20127;-71
2024/01/23 00:16:57;;;;;;;19.88;3.70;;;;;;;5.32;100.00;101789.53;5017605;28;20402;-72
2024/01/23 00:19:26;;;;;;;21.08;4.20;;;;;;;5.32;100.00;101797.81;5033747;28;20033;-72
2024/01/23 00:21:51;;;;;;;20.50;4.03;;;;;;;5.33;100.00;101794.84;5003864;28;20041;-72
2024/01/23 00:24:17;;;;;;;16.42;3.67;;;;;;;5.34;100.00;101792.91;5037833;28;20669;-72
2024/01/23 00:26:43;;;;;;;22.42;3.97;;;;;;;5.34;100.00;101790.16;5034130;28;20051;-72
2024/01/23 00:29:08;;;;;;;21.55;3.85;;;;;;;5.37;100.00;101797.97;5005065;28;20065;-72
2024/01/23 00:31:36;;;;;;;27.55;4.82;;;;;;;5.41;100.00;101798.38;5001935;28;20021;-72
2024/01/23 00:34:02;;;;;;;18.30;4.15;;;;;;;5.42;100.00;101798.13;5021628;28;20088;-72
2024/01/23 00:36:28;;;;;;;27.30;3.90;;;;;;;5.44;100.00;101804.25;5037844;28;20029;-72
2024/01/23 00:38:53;;;;;;;16.58;3.72;;;;;;;5.47;100.00;101812.06;5054096;28;20394;-72
2024/01/23 00:41:19;;;;;;;22.88;3.42;;;;;;;5.47;100.00;101805.72;5029020;28;20130;-72
2024/01/23 00:43:44;;;;;;;20.77;4.43;;;;;;;5.47;100.00;101806.56;5021070;28;20474;-72
2024/01/23 00:46:10;;;;;;;15.95;3.75;;;;;;;5.46;100.00;101807.63;5027474;28;20052;-72
2024/01/23 00:48:35;;;;;;;22.17;4.35;;;;;;;5.47;100.00;101814.00;4984854;28;20036;-72
2024/01/23 00:51:01;;;;;;;13.23;2.88;;;;;;;5.46;100.00;101810.41;5019118;28;20034;-72
2024/01/23 00:53:26;;;;;;;27.20;3.90;;;;;;;5.44;100.00;101809.78;5023411;28;20084;-72
2024/01/23 00:55:52;;;;;;;14.75;4.00;;;;;;;5.46;100.00;101815.91;5019049;28;20029;-72
2024/01/23 00:58:17;;;;;;;17.65;3.75;;;;;;;5.44;100.00;101808.94;5020826;28;20390;-72
2024/01/23 01:00:46;;;;;;;20.05;3.33;;;;;;;5.44;100.00;101807.00;4994466;28;20422;-72
2024/01/23 01:03:12;;;;;;;19.40;3.80;;;;;;;5.44;100.00;101801.50;4993330;28;20084;-72
2024/01/23 01:05:37;;;;;;;17.55;3.75;;;;;;;5.46;100.00;101799.38;5004475;28;20037;-72
2024/01/23 01:08:04;;;;;;;19.58;4.43;;;;;;;5.46;100.00;101790.25;5020500;28;20102;-72
2024/01/23 01:10:30;;;;;;;18.70;4.28;;;;;;;5.44;100.00;101784.97;5003051;28;20044;-72
2024/01/23 01:12:55;;;;;;;25.52;4.13;;;;;;;5.44;100.00;101773.94;5020422;28;20040;-72
2024/01/23 01:15:21;;;;;;;22.13;4.43;;;;;;;5.46;100.00;101776.47;5002981;28;20030;-72
2024/01/23 01:17:46;;;;;;;21.15;4.00;;;;;;;5.41;100.00;101784.59;5036543;28;20090;-72
2024/01/23 01:20:12;;;;;;;23.98;3.72;;;;;;;5.38;100.00;101789.50;5008197;28;20037;-72
2024/01/23 01:22:39;;;;;;;22.90;4.20;;;;;;;5.37;100.00;101792.47;5003931;28;20096;-72
2024/01/23 01:25:08;;;;;;;23.92;4.68;;;;;;;5.33;100.00;101794.84;5019490;28;20026;-72
2024/01/23 01:27:34;;;;;;;20.88;3.90;;;;;;;5.32;100.00;101798.66;5001882;28;20439;-72
2024/01/23 01:30:00;;;;;;;23.40;4.40;;;;;;;5.27;100.00;101787.50;5003721;28;20021;-72
2024/01/23 01:32:25;;;;;;;16.15;3.60;;;;;;;5.25;100.00;101797.03;5032107;28;20028;-72
2024/01/23 01:34:51;;;;;;;23.55;3.97;;;;;;;5.20;100.00;101792.22;5019857;28;20040;-72
2024/01/23 01:37:16;;;;;;;20.23;3.50;;;;;;;5.17;100.00;101792.66;5020313;28;20056;-72
2024/01/23 01:39:42;;;;;;;15.40;3.67;;;;;;;5.17;100.00;101780.81;5022946;28;20108;-72
2024/01/23 01:42:07;;;;;;;20.77;3.95;;;;;;;5.13;100.00;101784.03;5006420;28;20029;-72
2024/01/23 01:44:34;;;;;;;24.73;4.13;;;;;;;5.08;100.00;101791.28;4985904;28;20030;-72
2024/01/23 01:47:00;;;;;;;19.52;4.35;;;;;;;5.05;100.00;101792.56;5013653;28;20032;-72
2024/01/23 01:49:25;;;;;;;18.40;3.70;;;;;;;5.04;100.00;101792.78;5019520;28;20041;-72
2024/01/23 01:51:51;;;;;;;25.30;4.57;;;;;;;5.03;100.00;101799.38;5039148;28;20525;-72
2024/01/23 01:54:17;;;;;;;18.33;3.95;;;;;;;5.00;100.00;101794.31;5019763;28;20036;-72
2024/01/23 01:56:42;;;;;;;21.70;3.90;;;;;;;4.98;100.00;101805.53;5019889;28;20030;-72
2024/01/23 01:59:09;;;;;;;21.13;3.63;;;;;;;4.99;100.00;101809.16;4985740;28;20053;-72
2024/01/23 02:01:34;;;;;;;25.92;4.18;;;;;;;4.91;100.00;101807.53;4993273;28;20032;-72
2024/01/23 02:04:00;;;;;;;23.63;3.97;;;;;;;4.93;100.00;101816.38;4985739;28;20026;-72
2024/01/23 02:06:26;;;;;;;20.00;4.55;;;;;;;4.88;100.00;101819.81;5017593;28;20024;-72
2024/01/23 02:08:51;;;;;;;20.02;3.53;;;;;;;4.92;100.00;101825.72;5002001;28;20041;-72
2024/01/23 02:11:17;;;;;;;25.83;4.40;;;;;;;4.89;100.00;101828.94;5003249;28;20022;-72
2024/01/23 02:13:42;;;;;;;21.73;3.22;;;;;;;4.88;100.00;101838.25;5002905;28;20025;-72
2024/01/23 02:16:08;;;;;;;22.10;4.45;;;;;;;4.85;100.00;101833.22;5052277;28;20390;-72
2024/01/23 02:18:33;;;;;;;20.92;4.18;;;;;;;4.85;100.00;101824.94;5019185;28;20517;-72
2024/01/23 02:20:59;;;;;;;25.88;5.97;;;;;;;4.85;100.00;101816.69;5029002;28;20418;-72
2024/01/23 02:23:31;;;;;;;19.25;3.90;;;;;;;4.89;100.00;101828.94;5018643;28;20046;-72
2024/01/23 02:25:56;;;;;;;25.58;4.13;;;;;;;4.87;100.00;101823.63;5052237;28;20040;-72
2024/01/23 02:28:22;;;;;;;25.70;3.50;;;;;;;4.87;100.00;101828.28;5035583;28;20034;-72
2024/01/23 02:30:48;;;;;;;21.35;4.07;;;;;;;4.87;100.00;101825.53;5035420;28;20029;-72
2024/01/23 02:33:16;;;;;;;28.33;4.45;;;;;;;4.90;100.00;101822.34;5016229;28;20078;-71
2024/01/23 02:35:42;;;;;;;22.85;3.72;;;;;;;4.90;100.00;101825.09;4992384;28;20112;-72
2024/01/23 02:38:10;;;;;;;20.50;3.58;;;;;;;4.91;100.00;101827.63;5018990;28;20033;-72
2024/01/23 02:40:36;;;;;;;16.33;4.07;;;;;;;4.91;100.00;101826.81;5029159;28;20167;-72
2024/01/23 02:43:01;;;;;;;21.73;3.50;;;;;;;4.87;100.00;101822.78;5017488;28;20026;-72
2024/01/23 02:45:27;;;;;;;20.13;4.65;;;;;;;4.85;100.00;101825.78;5026653;28;20030;-72
2024/01/23 02:47:52;;;;;;;21.83;3.92;;;;;;;4.85;100.00;101824.94;5001188;28;20034;-72
2024/01/23 02:50:18;;;;;;;23.42;3.88;;;;;;;4.86;100.00;101829.38;5018805;28;20040;-72
2024/01/23 02:52:44;;;;;;;18.50;3.45;;;;;;;4.86;100.00;101827.47;5004519;28;20045;-72
2024/01/23 02:55:09;;;;;;;14.80;3.42;;;;;;;4.87;100.00;101840.16;5002047;28;20022;-72
2024/01/23 02:57:35;;;;;;;22.55;4.03;;;;;;;4.84;100.00;101845.25;5002016;28;20025;-72
2024/01/23 03:00:00;;;;;;;18.98;3.75;;;;;;;4.86;100.00;101845.91;5018346;28;20026;-72
2024/01/23 03:02:25;;;;;;;18.85;3.60;;;;;;;4.84;100.00;101856.28;4984897;28;20029;-72
2024/01/23 03:04:51;;;;;;;24.70;3.88;;;;;;;4.79;100.00;101843.19;4990673;28;20029;-72
2024/01/23 03:07:17;;;;;;;19.27;4.30;;;;;;;4.79;100.00;101842.34;5001474;28;20042;-72
2024/01/23 03:09:43;;;;;;;31.98;4.10;;;;;;;4.80;100.00;101833.88;4990691;28;20470;-72
2024/01/23 03:12:18;;;;;;;20.05;3.95;;;;;;;4.80;100.00;101838.53;5017566;28;20402;-72
2024/01/23 03:14:44;;;;;;;22.60;4.00;;;;;;;4.77;100.00;101836.22;5001098;28;20160;-71
2024/01/23 03:17:10;;;;;;;16.02;3.35;;;;;;;4.75;100.00;101824.59;5017768;28;20042;-72
2024/01/23 03:19:36;;;;;;;21.10;4.00;;;;;;;4.74;100.00;101832.00;5018113;28;20041;-72
2024/01/23 03:22:01;;;;;;;21.27;4.00;;;;;;;4.75;100.00;101830.09;4985315;28;20375;-73
2024/01/23 03:24:27;;;;;;;30.48;4.30;;;;;;;4.73;100.00;101829.47;5001093;28;20032;-72
2024/01/23 03:26:52;;;;;;;22.48;4.15;;;;;;;4.74;100.00;101828.44;4998162;28;20037;-72
2024/01/23 03:29:18;;;;;;;19.98;4.38;;;;;;;4.71;100.00;101829.72;5017838;28;20053;-72
2024/01/23 03:31:44;;;;;;;24.13;4.32;;;;;;;4.70;100.00;101839.00;5018048;28;20036;-72
2024/01/23 03:34:09;;;;;;;23.52;4.32;;;;;;;4.69;100.00;101832.66;5000391;28;20530;-72
2024/01/23 03:36:35;;;;;;;24.67;3.80;;;;;;;4.69;100.00;101834.59;5001875;28;20088;-72
2024/01/23 03:39:00;;;;;;;26.00;4.40;;;;;;;4.64;100.00;101850.91;5001683;28;20092;-72
2024/01/23 03:41:26;;;;;;;24.42;4.22;;;;;;;4.66;100.00;101844.13;5009087;28;20029;-72
2024/01/23 03:43:52;;;;;;;25.70;5.05;;;;;;;4.62;100.00;101845.63;5017941;28;20037;-72
2024/01/23 03:46:17;;;;;;;25.40;4.35;;;;;;;4.58;100.00;101849.06;5026293;28;20037;-72
2024/01/23 03:48:43;;;;;;;22.48;4.07;;;;;;;4.59;100.00;101854.31;5031390;28;20621;-72
2024/01/23 03:51:08;;;;;;;19.75;3.45;;;;;;;4.57;100.00;101856.47;5000708;28;20026;-72
2024/01/23 03:53:34;;;;;;;23.10;3.75;;;;;;;4.54;100.00;101867.94;5001479;28;20073;-71
2024/01/23 03:55:59;;;;;;;20.25;4.13;;;;;;;4.53;100.00;101860.72;5017235;28;20033;-72
2024/01/23 03:58:25;;;;;;;24.42;3.58;;;;;;;4.55;100.00;101858.59;5017791;28;20029;-72
2024/01/23 04:00:50;;;;;;;23.58;4.63;;;;;;;4.54;100.00;101876.19;5001181;28;20033;-72
2024/01/23 04:03:16;;;;;;;24.63;3.60;;;;;;;4.55;100.00;101877.00;4988720;28;20018;-71
2024/01/23 04:05:41;;;;;;;25.73;4.53;;;;;;;4.53;100.00;101871.72;5017537;28;20034;-71
2024/01/23 04:08:07;;;;;;;22.35;3.55;;;;;;;4.56;100.00;101874.03;5001411;28;20389;-71
2024/01/23 04:10:32;;;;;;;25.23;3.72;;;;;;;4.54;100.00;101870.69;5017988;28;20033;-71
2024/01/23 04:12:58;;;;;;;26.73;5.65;;;;;;;4.56;100.00;101871.28;5031382;28;20033;-72
2024/01/23 04:15:24;;;;;;;26.90;5.47;;;;;;;4.54;100.00;101867.94;5018723;28;20025;-71
2024/01/23 04:17:50;;;;;;;25.48;5.97;;;;;;;4.61;100.00;101863.19;5026839;28;20054;-72
2024/01/23 04:20:17;;;;;;;19.30;4.72;;;;;;;4.65;100.00;101861.72;5017693;28;20501;-71
2024/01/23 04:22:43;;;;;;;23.55;4.60;;;;;;;4.66;100.00;101849.63;4998769;28;20122;-72
2024/01/23 04:25:10;;;;;;;19.98;4.05;;;;;;;4.72;100.00;101853.41;4995126;28;20029;-71
2024/01/23 04:27:35;;;;;;;26.17;4.30;;;;;;;4.74;100.00;101843.03;5001444;28;20056;-72
2024/01/23 04:30:01;;;;;;;31.35;6.38;;;;;;;4.77;100.00;101850.00;4994392;28;20034;-72
2024/01/23 04:32:27;;;;;;;27.30;4.63;;;;;;;4.79;100.00;101842.34;5000851;28;20083;-71
2024/01/23 04:34:52;;;;;;;34.97;5.15;;;;;;;4.82;100.00;101848.25;5017354;28;20033;-72
2024/01/23 04:37:18;;;;;;;27.77;5.32;;;;;;;4.86;100.00;101855.00;5033857;28;20109;-72
2024/01/23 04:39:44;;;;;;;28.75;5.70;;;;;;;4.89;100.00;101859.19;4988128;28;20124;-71
2024/01/23 04:42:09;;;;;;;26.55;4.90;;;;;;;4.92;100.00;101869.75;5005426;28;20038;-72
2024/01/23 04:44:35;;;;;;;30.95;5.07;;;;;;;4.95;100.00;101868.47;5015147;28;20052;-72
2024/01/23 04:47:00;;;;;;;23.95;5.15;;;;;;;4.99;100.00;101864.22;5011309;28;20087;-71
2024/01/23 04:49:26;;;;;;;29.65;5.50;;;;;;;5.03;100.00;101869.03;4999080;28;20041;-72
2024/01/23 04:51:51;;;;;;;32.13;6.28;;;;;;;5.04;100.00;101873.50;5003310;28;20098;-71
2024/01/23 04:54:17;;;;;;;38.92;6.65;;;;;;;5.06;100.00;101871.34;4982983;28;20030;-72
2024/01/23 04:56:42;;;;;;;26.75;4.68;;;;;;;5.10;100.00;101875.34;4989997;28;20025;-71
2024/01/23 04:59:08;;;;;;;38.63;5.80;;;;;;;5.13;100.00;101872.16;4999097;28;20497;-72
2024/01/23 05:01:33;;;;;;;31.60;5.00;;;;;;;5.18;100.00;101879.72;5017207;28;20040;-72
2024/01/23 05:03:59;;;;;;;30.08;5.28;;;;;;;5.22;100.00;101880.13;5000842;28;20484;-72
2024/01/23 05:06:25;;;;;;;31.77;6.28;;;;;;;5.23;100.00;101888.16;5017127;28;20429;-71
2024/01/23 05:08:50;;;;;;;33.97;5.90;;;;;;;5.26;100.00;101892.38;5020925;28;20029;-72
2024/01/23 05:11:16;;;;;;;28.60;6.10;;;;;;;5.26;100.00;101893.22;5020581;28;20025;-72
2024/01/23 05:13:42;;;;;;;32.97;5.60;;;;;;;5.30;100.00;101899.13;5020482;28;20543;-72
2024/01/23 05:16:08;;;;;;;28.50;4.90;;;;;;;5.32;100.00;101900.59;5019380;28;20032;-71
2024/01/23 05:18:33;;;;;;;26.80;4.80;;;;;;;5.36;100.00;101903.75;5019915;28;20030;-72
2024/01/23 05:20:58;;;;;;;25.80;5.07;;;;;;;5.38;100.00;101901.59;5020851;28;20497;-72
2024/01/23 05:23:25;;;;;;;27.77;5.03;;;;;;;5.40;100.00;101899.44;5018266;28;20103;-72
2024/01/23 05:25:51;;;;;;;38.15;6.25;;;;;;;5.38;100.00;101902.44;5020216;28;20429;-72
2024/01/23 05:28:16;;;;;;;28.38;4.93;;;;;;;5.42;100.00;101894.56;5036735;28;20080;-72
2024/01/23 05:30:42;;;;;;;32.17;5.18;;;;;;;5.45;100.00;101910.63;5004108;28;20087;-72
2024/01/23 05:33:07;;;;;;;30.88;5.13;;;;;;;5.43;100.00;101910.00;5014866;28;20037;-72
2024/01/23 05:35:33;;;;;;;26.92;5.50;;;;;;;5.46;100.00;101898.56;5000696;28;20049;-72
2024/01/23 05:37:59;;;;;;;26.95;4.68;;;;;;;5.48;100.00;101898.31;4985953;28;20030;-72
2024/01/23 05:40:24;;;;;;;32.13;5.85;;;;;;;5.49;100.00;101902.75;4992944;28;20033;-72
2024/01/23 05:42:50;;;;;;;26.30;5.40;;;;;;;5.51;100.00;101897.88;5036518;28;20021;-71
2024/01/23 05:45:15;;;;;;;25.67;4.35;;;;;;;5.52;100.00;101900.41;5029098;28;20126;-72
2024/01/23 05:47:41;;;;;;;26.70;4.75;;;;;;;5.52;100.00;101907.84;5019210;28;20086;-72
2024/01/23 05:50:07;;;;;;;29.63;5.53;;;;;;;5.51;100.00;101906.97;5019998;28;20045;-72
2024/01/23 05:52:32;;;;;;;31.25;5.70;;;;;;;5.54;100.00;101917.56;5038703;28;20032;-71
2024/01/23 05:54:59;;;;;;;25.35;4.78;;;;;;;5.55;100.00;101910.97;5003468;28;20041;-72
2024/01/23 05:57:25;;;;;;;27.23;4.82;;;;;;;5.52;100.00;101914.19;5001439;28;20138;-72
2024/01/23 05:59:51;;;;;;;31.48;5.10;;;;;;;5.57;100.00;101916.25;5020102;28;20028;-71
2024/01/23 06:02:16;;;;;;;26.17;4.65;;;;;;;5.57;100.00;101910.72;5003056;28;20029;-72
2024/01/23 06:04:42;;;;;;;30.67;5.15;;;;;;;5.59;100.00;101911.34;5032520;28;20056;-72
2024/01/23 06:07:08;;;;;;;35.58;5.25;;;;;;;5.59;100.00;101922.38;5019520;28;20029;-72
2024/01/23 06:09:33;;;;;;;24.20;5.07;;;;;;;5.62;100.00;101905.38;5019533;28;20505;-72
2024/01/23 06:11:59;;;;;;;28.58;5.15;;;;;;;5.63;100.00;101903.47;5035783;28;20493;-72
2024/01/23 06:14:24;;;;;;;29.20;4.70;;;;;;;5.67;100.00;101905.56;5019405;28;20421;-72
2024/01/23 06:16:50;;;;;;;31.95;5.47;;;;;;;5.74;100.00;101905.47;5023428;28;20029;-72
2024/01/23 06:19:20;;;;;;;32.75;5.68;;;;;;;5.76;100.00;101897.84;5018614;28;20038;-71
2024/01/23 06:21:45;;;;;;;26.92;4.70;;;;;;;5.77;100.00;101900.38;5018212;28;20058;-72
2024/01/23 06:24:11;;;;;;;31.38;5.30;;;;;;;5.80;100.00;101910.09;4990595;28;20052;-72
2024/01/23 06:26:36;;;;;;;29.65;5.78;;;;;;;5.84;100.00;101905.81;5017986;28;20037;-72
2024/01/23 06:29:03;;;;;;;33.33;5.63;;;;;;;5.84;100.00;101894.78;5028873;28;20038;-72
2024/01/23 06:31:29;;;;;;;42.15;5.20;;;;;;;5.86;100.00;101887.13;5002263;28;20038;-72
2024/01/23 06:33:55;;;;;;;35.88;5.38;;;;;;;5.88;100.00;101876.72;5015833;28;20030;-72
2024/01/23 06:36:21;;;;;;;42.72;5.47;;;;;;;5.91;100.00;101873.50;5018735;28;20055;-72
2024/01/23 06:38:46;;;;;;;36.88;5.10;;;;;;;5.90;100.00;101880.06;4990550;28;20033;-72
2024/01/23 06:41:12;;;;;;;43.90;5.70;;;;;;;5.91;100.00;101878.19;5043127;28;20367;-72
2024/01/23 06:43:37;;;;;;;42.60;5.70;;;;;;;5.91;100.00;101876.25;5018717;28;20032;-72
2024/01/23 06:46:03;;;;;;;38.80;5.57;;;;;;;5.91;100.00;101879.00;5021081;28;20073;-71
2024/01/23 06:48:30;;;;;;;42.63;6.63;;;;;;;5.96;100.00;101887.47;4991317;28;20036;-72
2024/01/23 06:50:59;;;;;;;35.28;5.50;;;;;;;5.99;100.00;101888.91;5002292;28;20033;-72
2024/01/23 06:53:25;;;;;;;37.15;5.93;;;;;;;5.99;100.00;101892.53;5004860;28;20064;-72
2024/01/23 06:55:50;;;;;;;36.35;6.47;;;;;;;5.99;100.00;101887.03;5000413;28;20049;-72
2024/01/23 06:58:16;;;;;;;45.05;6.60;;;;;;;6.03;100.00;101895.66;5002290;28;20371;-72
2024/01/23 07:00:41;;;;;;;45.35;6.28;;;;;;;6.03;100.00;101879.94;5000007;28;20030;-72
2024/01/23 07:03:08;;;;;;;38.25;6.28;;;;;;;6.06;100.00;101883.34;5015154;28;20025;-72
2024/01/23 07:05:35;;;;;;;39.63;5.57;;;;;;;6.10;100.00;101884.53;5035076;28;20036;-72
2024/01/23 07:08:00;;;;;;;40.85;5.90;;;;;;;6.14;100.00;101894.06;4999559;28;20030;-72
2024/01/23 07:10:26;;;;;;;38.03;6.22;;;;;;;6.15;100.00;101888.28;5002087;28;20056;-72
2024/01/23 07:12:51;;;;;;;40.95;6.13;;;;;;;6.18;100.00;101889.75;5018339;28;20039;-72
2024/01/23 07:15:17;;;;;;;45.78;6.10;;;;;;;6.18;100.00;101887.00;5001949;28;20033;-72
2024/01/23 07:17:42;;;;;;;38.20;6.13;;;;;;;6.20;100.00;101882.09;5034116;28;20371;-72
2024/01/23 07:20:10;;;;;;;38.97;5.78;;;;;;;6.23;100.00;101887.97;5019818;28;20049;-72
2024/01/23 07:22:35;;;;;;;42.15;5.53;;;;;;;6.25;100.00;101890.53;5018130;28;20045;-72
2024/01/23 07:25:01;;;;;;;43.92;6.28;;;;;;;6.28;100.00;101891.97;5034576;28;20508;-72
2024/01/23 07:27:27;;;;;;;48.10;6.10;;;;;;;6.31;100.00;101886.81;5018096;28;20029;-72
2024/01/23 07:29:52;;;;;;;39.33;6.38;;;;;;;6.32;100.00;101888.50;5016432;28;20057;-72
2024/01/23 07:32:18;;;;;;;36.80;5.03;;;;;;;6.35;100.00;101874.28;5015181;28;20368;-72
2024/01/23 07:34:43;;;;;;;42.67;6.50;;;;;;;6.37;100.00;101871.25;5018091;28;20030;-72
2024/01/23 07:37:09;;;;;;;39.08;5.20;;;;;;;6.40;100.00;101866.09;4991332;28;20037;-72
2024/01/23 07:39:34;;;;;;;52.45;6.65;;;;;;;6.42;100.00;101863.13;5017998;28;20407;-72
2024/01/23 07:42:00;;;;;;;49.47;6.25;;;;;;;6.43;100.00;101865.63;5023391;28;20032;-72
2024/01/23 07:44:25;;;;;;;48.60;5.25;;;;;;;6.46;100.00;101878.13;4984636;28;20037;-72
2024/01/23 07:46:51;;;;;;;46.75;5.85;;;;;;;6.48;100.00;101889.78;5006820;28;20033;-72
2024/01/23 07:49:17;;;;;;;49.75;6.60;;;;;;;6.49;100.00;101892.31;5016714;28;20032;-72
2024/01/23 07:51:49;;;;;;;37.88;5.75;;;;;;;6.53;100.00;101894.63;5037226;28;20017;-72
2024/01/23 07:54:15;;;;;;;39.88;5.68;;;;;;;6.54;100.00;101901.81;5017493;28;20034;-72
2024/01/23 07:56:40;;;;;;;52.25;6.38;;;;;;;6.55;100.00;101889.72;5018012;28;20039;-72
2024/01/23 07:59:06;;;;;;;34.13;5.90;;;;;;;6.56;100.00;101872.91;5017850;28;20033;-72
2024/01/23 08:01:31;;;;;;;41.13;5.70;;;;;;;6.60;100.00;101868.63;5030971;28;20044;-72
2024/01/23 08:03:57;;;;;;;36.75;5.22;;;;;;;6.61;100.00;101863.94;5050561;28;20026;-72
2024/01/23 08:06:23;;;;;;;46.97;6.53;;;;;;;6.61;100.00;101869.44;4998082;28;20037;-73
2024/01/23 08:08:50;;;;;;;43.00;6.28;;;;;;;6.63;100.00;101859.00;5015625;28;20144;-72
2024/01/23 08:11:17;;;;;;;42.88;5.80;;;;;;;6.66;100.00;101853.03;5034091;28;20083;-72
2024/01/23 08:13:42;;;;;;;39.50;5.78;;;;;;;6.69;100.00;101855.31;5033936;28;20033;-72
2024/01/23 08:16:09;;;;;;;44.22;6.70;;;;;;;6.74;100.00;101855.44;5000643;28;20017;-72
2024/01/23 08:18:35;;;;;;;39.38;5.32;;;;;;;6.75;100.00;101870.09;5020932;28;20037;-72
2024/01/23 08:21:00;;;;;;;52.47;5.80;;;;;;;6.76;100.00;101880.06;5017597;28;20394;-72
2024/01/23 08:23:26;;;;;;;49.35;6.40;;;;;;;6.81;100.00;101878.28;4999407;28;20107;-72
2024/01/23 08:25:52;;;;;;;65.05;6.55;;;;;;;6.84;100.00;101860.38;5001201;28;20042;-72
2024/01/23 08:28:17;;;;;;;38.22;5.68;;;;;;;6.85;100.00;101860.16;4984119;28;20037;-72
2024/01/23 08:30:43;;;;;;;51.25;5.93;;;;;;;6.87;100.00;101855.22;5016910;28;20124;-72
2024/01/23 08:33:09;;;;;;;48.63;6.53;;;;;;;6.87;100.00;101844.19;5000876;28;20402;-72
2024/01/23 08:35:36;;;;;;;52.50;7.50;;;;;;;6.90;100.00;101835.41;5001267;28;20426;-72
2024/01/23 08:38:02;;;;;;;45.38;5.90;;;;;;;6.93;100.00;101829.41;5001249;28;20030;-72
2024/01/23 08:40:27;;;;;;;49.97;5.55;;;;;;;6.97;100.00;101812.41;5037748;28;20026;-72
2024/01/23 08:42:53;;;;;;;51.28;6.32;;;;;;;6.99;100.00;101812.97;5003759;28;20033;-72
2024/01/23 08:45:18;;;;;;;54.80;7.07;;;;;;;7.01;100.00;101805.31;5031173;28;20104;-72
2024/01/23 08:47:44;;;;;;;51.25;6.03;;;;;;;7.03;100.00;101825.25;5020769;28;20044;-72
2024/01/23 08:50:10;;;;;;;59.65;7.13;;;;;;;7.09;100.00;101838.09;5037566;28;20112;-72
2024/01/23 08:52:35;;;;;;;55.15;6.50;;;;;;;7.12;100.00;101863.31;5023645;28;20075;-72
2024/01/23 08:55:01;;;;;;;52.90;6.55;;;;;;;7.14;100.00;101868.63;5004436;28;20036;-72
2024/01/23 08:57:26;;;;;;;45.60;5.57;;;;;;;7.15;100.00;101873.88;5002546;28;20025;-72
2024/01/23 08:59:52;;;;;;;41.60;5.53;;;;;;;7.18;100.00;101861.53;5004580;28;20382;-72
2024/01/23 09:02:17;;;;;;;44.45;5.53;;;;;;;7.22;100.00;101851.69;5002356;28;20478;-72
2024/01/23 09:04:43;;;;;;;53.15;6.72;;;;;;;7.29;100.00;101852.41;5031007;28;20033;-72
2024/01/23 09:07:08;;;;;;;45.40;6.07;;;;;;;7.37;100.00;101860.34;5017346;28;20631;-72
2024/01/23 09:09:34;;;;;;;58.38;7.97;;;;;;;7.41;100.00;101846.91;4986724;28;20018;-72
2024/01/23 09:11:59;;;;;;;48.28;6.50;;;;;;;7.44;100.00;101876.81;5034330;28;20080;-72
2024/01/23 09:14:25;;;;;;;47.22;6.70;;;;;;;7.49;100.00;101876.09;5065084;28;20026;-73
2024/01/23 09:16:50;;;;;;;48.85;6.00;;;;;;;7.53;100.00;101866.25;5016624;28;20030;-72
2024/01/23 09:19:16;;;;;;;52.85;6.22;;;;;;;7.55;100.00;101823.47;5000076;28;20033;-72
2024/01/23 09:21:42;;;;;;;66.78;7.32;;;;;;;7.57;100.00;101820.44;5033207;28;20046;-72
2024/01/23 09:24:07;;;;;;;50.25;5.90;;;;;;;7.59;100.00;101879.94;5017859;28;20041;-73
2024/01/23 09:26:33;;;;;;;52.80;5.95;;;;;;;7.64;100.00;101870.94;5033487;28;20040;-73
2024/01/23 09:28:58;;;;;;;62.20;6.85;;;;;;;7.66;100.00;101834.72;5015872;28;20160;-72
2024/01/23 09:31:24;;;;;;;45.25;5.63;;;;;;;7.67;100.00;101842.78;5032687;28;20030;-72
2024/01/23 09:33:50;;;;;;;53.95;6.78;;;;;;;7.74;100.00;101839.88;5033062;28;20068;-72
2024/01/23 09:36:15;;;;;;;60.40;6.72;;;;;;;7.75;100.00;101817.53;5028650;28;20034;-72
2024/01/23 09:38:40;;;;;;;68.25;6.60;;;;;;;7.79;100.00;101829.78;5036778;28;20681;-73
2024/01/23 09:41:11;;;;;;;61.58;6.90;;;;;;;7.84;100.00;101831.81;5015684;28;20036;-72
2024/01/23 09:43:44;;;;;;;50.25;7.00;;;;;;;7.86;100.00;101823.28;5020171;28;20033;-72
2024/01/23 09:46:11;;;;;;;58.50;7.57;;;;;;;7.93;100.00;101851.63;5017972;28;20037;-72
2024/01/23 09:48:38;;;;;;;49.95;7.13;;;;;;;7.94;100.00;101862.47;5036266;28;20041;-72
2024/01/23 09:51:06;;;;;;;49.15;5.80;;;;;;;7.99;100.00;101854.25;4985741;28;20080;-72
2024/01/23 09:53:32;;;;;;;57.15;6.22;;;;;;;8.02;100.00;101825.28;5021379;28;20533;-72
2024/01/23 09:55:58;;;;;;;48.53;6.28;;;;;;;8.05;100.00;101835.84;5002446;28;20032;-72
2024/01/23 09:58:24;;;;;;;60.88;8.25;;;;;;;8.09;100.00;101828.75;5020071;28;20077;-73
2024/01/23 10:00:50;;;;;;;49.97;6.07;;;;;;;8.11;100.00;101839.56;5001363;28;20363;-73
2024/01/23 10:03:16;;;;;;;62.65;8.07;;;;;;;8.14;100.00;101830.78;4999835;28;20053;-72
2024/01/23 10:05:41;;;;;;;59.38;7.07;;;;;;;8.15;100.00;101827.75;5031669;28;20037;-73
2024/01/23 10:08:07;;;;;;;50.80;6.43;;;;;;;8.15;100.00;101813.09;5031180;28;20025;-73
2024/01/23 10:10:35;;;;;;;63.03;7.45;;;;;;;8.19;100.00;101820.66;5030575;28;20482;-72
2024/01/23 10:13:00;;;;;;;58.67;7.20;;;;;;;8.18;100.00;101807.91;5031191;28;20026;-72
2024/01/23 10:15:26;;;;;;;60.03;7.15;;;;;;;8.21;100.00;101818.47;5016254;28;20037;-73
2024/01/23 10:17:53;;;;;;;50.25;6.28;;;;;;;8.25;100.00;101821.59;4998743;28;20041;-73
2024/01/23 10:20:19;;;;;;;47.92;6.97;;;;;;;8.25;100.00;101825.22;5017203;28;20044;-73
2024/01/23 10:22:45;;;;;;;51.90;6.95;;;;;;;8.26;100.00;101817.75;5014394;28;20482;-72
2024/01/23 10:25:13;;;;;;;61.75;6.75;;;;;;;8.29;100.00;101812.53;4995788;28;20545;-72
2024/01/23 10:27:39;;;;;;;57.55;7.70;;;;;;;8.33;100.00;101818.44;5001898;28;20118;-73
2024/01/23 10:30:06;;;;;;;60.50;6.57;;;;;;;8.33;100.00;101815.69;5008111;28;20034;-72
2024/01/23 10:32:31;;;;;;;56.33;8.20;;;;;;;8.36;100.00;101806.88;5023823;28;20037;-72
2024/01/23 10:34:57;;;;;;;55.05;6.55;;;;;;;8.38;100.00;101812.16;5008040;28;20056;-73
2024/01/23 10:37:22;;;;;;;56.40;7.10;;;;;;;8.39;100.00;101823.03;5033951;28;20041;-72
2024/01/23 10:39:48;;;;;;;71.70;8.27;;;;;;;8.43;100.00;101823.34;5018356;28;20093;-72
2024/01/23 10:42:15;;;;;;;59.60;7.13;;;;;;;8.46;100.00;101815.38;5018218;28;20129;-72
2024/01/23 10:44:40;;;;;;;51.78;6.72;;;;;;;8.48;100.00;101823.47;5018173;28;20107;-72
2024/01/23 10:47:06;;;;;;;63.17;7.82;;;;;;;8.50;100.00;101826.81;5001262;28;20063;-72
2024/01/23 10:49:31;;;;;;;61.70;7.95;;;;;;;8.52;100.00;101821.03;5001332;28;20472;-72
2024/01/23 10:51:57;;;;;;;56.53;7.38;;;;;;;8.55;100.00;101815.81;5001186;28;20029;-73
2024/01/23 10:54:28;;;;;;;51.15;7.43;;;;;;;8.56;100.00;101819.44;5000013;28;20486;-72
2024/01/23 10:57:04;;;;;;;54.05;8.18;;;;;;;8.59;100.00;101824.50;5011305;28;20095;-72
2024/01/23 10:59:30;;;;;;;58.40;6.97;;;;;;;8.62;100.00;101819.28;5018844;28;20483;-72
2024/01/23 11:02:30;;;;;;;60.78;7.65;;;;;;;8.65;100.00;101832.63;5017914;28;20034;-73
2024/01/23 11:04:56;;;;;;;55.05;7.47;;;;;;;8.68;100.00;101825.75;4998375;28;20029;-72
2024/01/23 11:07:37;;;;;;;53.90;7.20;;;;;;;8.73;100.00;101831.38;5002042;28;20048;-72
2024/01/23 11:10:45;;;;;;;57.30;7.43;;;;;;;8.76;100.00;101814.28;5032552;28;20119;-73
2024/01/23 11:13:32;;;;;;;51.42;7.15;;;;;;;8.80;100.00;101804.34;5021164;28;20390;-72